createdAt,value
2018-06-04T00:00:39.707Z,1006.25
2018-06-04T00:01:39.696Z,1006.24
2018-06-04T00:02:39.679Z,1006.22
2018-06-04T00:03:39.662Z,1006.26
2018-06-04T00:04:39.664Z,1006.22
2018-06-04T00:05:39.638Z,1006.25
2018-06-04T00:06:39.619Z,1006.21
2018-06-04T00:07:39.601Z,1006.22
2018-06-04T00:08:39.587Z,1006.21
2018-06-04T00:09:39.573Z,1006.20
2018-06-04T00:10:39.565Z,1006.18
2018-06-04T00:11:39.544Z,1006.25
2018-06-04T00:12:39.526Z,1006.25
2018-06-04T00:13:39.511Z,1006.26
2018-06-04T00:14:39.495Z,1006.22
2018-06-04T00:15:39.489Z,1006.25
2018-06-04T00:16:39.471Z,1006.26
2018-06-04T00:17:39.449Z,1006.28
2018-06-04T00:18:39.432Z,1006.28
2018-06-04T00:19:39.418Z,1006.27
2018-06-04T00:20:39.416Z,1006.24
2018-06-04T00:21:39.393Z,1006.26
2018-06-04T00:22:39.371Z,1006.24
2018-06-04T00:23:39.360Z,1006.25
2018-06-04T00:24:39.342Z,1006.23
2018-06-04T00:25:39.611Z,1006.21
2018-06-04T00:26:39.309Z,1006.23
2018-06-04T00:27:39.295Z,1006.22
2018-06-04T00:28:39.281Z,1006.23
2018-06-04T00:29:39.264Z,1006.21
2018-06-04T00:30:39.249Z,1006.16
2018-06-04T00:31:39.248Z,1006.15
2018-06-04T00:32:39.220Z,1006.16
2018-06-04T00:33:39.205Z,1006.15
2018-06-04T00:34:39.188Z,1006.18
2018-06-04T00:35:39.175Z,1006.18
2018-06-04T00:36:39.160Z,1006.16
2018-06-04T00:37:39.155Z,1006.17
2018-06-04T00:38:39.123Z,1006.14
2018-06-04T00:39:39.108Z,1006.16
2018-06-04T00:40:39.091Z,1006.11
2018-06-04T00:41:39.079Z,1006.08
2018-06-04T00:42:39.071Z,1006.12
2018-06-04T00:43:39.043Z,1006.08
2018-06-04T00:44:39.033Z,1006.08
2018-06-04T00:45:39.017Z,1006.08
2018-06-04T00:46:39.002Z,1006.08
2018-06-04T00:47:39.002Z,1006.06
2018-06-04T00:48:38.970Z,1006.11
2018-06-04T00:49:38.954Z,1006.08
2018-06-04T00:50:38.936Z,1006.08
2018-06-04T00:51:38.924Z,1006.08
2018-06-04T00:52:38.948Z,1006.08
2018-06-04T00:53:39.163Z,1006.07
2018-06-04T00:54:38.876Z,1006.07
2018-06-04T00:55:38.857Z,1006.08
2018-06-04T00:56:38.846Z,1006.09
2018-06-04T00:57:38.826Z,1006.09
2018-06-04T00:58:38.811Z,1006.07
2018-06-04T00:59:38.805Z,1006.04
2018-06-04T01:00:38.782Z,1006.02
2018-06-04T01:01:38.765Z,1005.97
2018-06-04T01:02:38.756Z,1005.97
2018-06-04T01:03:38.735Z,1005.94
2018-06-04T01:04:38.725Z,1005.95
2018-06-04T01:05:38.703Z,1005.93
2018-06-04T01:06:38.685Z,1005.92
2018-06-04T01:07:38.671Z,1005.90
2018-06-04T01:08:38.654Z,1005.90
2018-06-04T01:09:38.651Z,1005.89
2018-06-04T01:10:38.622Z,1005.90
2018-06-04T01:11:38.607Z,1005.88
2018-06-04T01:12:38.593Z,1005.85
2018-06-04T01:13:38.577Z,1005.91
2018-06-04T01:14:38.592Z,1005.87
2018-06-04T01:15:38.548Z,1005.86
2018-06-04T01:16:38.528Z,1005.85
2018-06-04T01:17:38.513Z,1005.83
2018-06-04T01:18:38.496Z,1005.85
2018-06-04T01:19:38.484Z,1005.88
2018-06-04T01:20:38.752Z,1005.89
2018-06-04T01:21:38.451Z,1005.87
2018-06-04T01:22:38.434Z,1005.85
2018-06-04T01:23:38.420Z,1005.83
2018-06-04T01:24:38.400Z,1005.85
2018-06-04T01:25:38.387Z,1005.87
2018-06-04T01:26:38.381Z,1005.84
2018-06-04T01:27:38.357Z,1005.84
2018-06-04T01:28:38.338Z,1005.81
2018-06-04T01:29:38.323Z,1005.79
2018-06-04T01:30:38.307Z,1005.77
2018-06-04T01:31:38.303Z,1005.76
2018-06-04T01:32:38.275Z,1005.76
2018-06-04T01:33:38.269Z,1005.77
2018-06-04T01:34:38.242Z,1005.74
2018-06-04T01:35:38.231Z,1005.75
2018-06-04T01:36:38.221Z,1005.74
2018-06-04T01:37:38.195Z,1005.74
2018-06-04T01:38:38.184Z,1005.73
2018-06-04T01:39:38.166Z,1005.72
2018-06-04T01:40:38.146Z,1005.75
2018-06-04T01:41:38.145Z,1005.75
2018-06-04T01:42:38.115Z,1005.75
2018-06-04T01:43:38.101Z,1005.72
2018-06-04T01:44:38.084Z,1005.69
2018-06-04T01:45:38.069Z,1005.65
2018-06-04T01:46:38.054Z,1005.69
2018-06-04T01:47:38.050Z,1005.69
2018-06-04T01:48:38.020Z,1005.66
2018-06-04T01:49:38.004Z,1005.66
2018-06-04T01:50:37.986Z,1005.68
2018-06-04T01:51:37.972Z,1005.62
2018-06-04T01:52:37.954Z,1005.64
2018-06-04T01:53:37.952Z,1005.66
2018-06-04T01:54:37.923Z,1005.65
2018-06-04T01:55:37.907Z,1005.64
2018-06-04T01:56:37.892Z,1005.63
2018-06-04T01:57:37.878Z,1005.63
2018-06-04T01:58:37.875Z,1005.64
2018-06-04T01:59:37.843Z,1005.62
2018-06-04T02:00:37.826Z,1005.64
2018-06-04T02:01:37.810Z,1005.62
2018-06-04T02:02:37.794Z,1005.61
2018-06-04T02:03:37.778Z,1005.63
2018-06-04T02:04:37.771Z,1005.62
2018-06-04T02:05:37.747Z,1005.61
2018-06-04T02:06:37.732Z,1005.61
2018-06-04T02:07:37.715Z,1005.57
2018-06-04T02:08:37.699Z,1005.56
2018-06-04T02:09:37.954Z,1005.58
2018-06-04T02:10:37.665Z,1005.59
2018-06-04T02:11:37.651Z,1005.59
2018-06-04T02:12:37.635Z,1005.61
2018-06-04T02:13:37.617Z,1005.60
2018-06-04T02:14:37.603Z,1005.57
2018-06-04T02:15:37.598Z,1005.57
2018-06-04T02:16:37.572Z,1005.57
2018-06-04T02:17:37.554Z,1005.55
2018-06-04T02:18:37.538Z,1005.54
2018-06-04T02:19:37.521Z,1005.56
2018-06-04T02:20:37.771Z,1005.55
2018-06-04T02:21:37.490Z,1005.51
2018-06-04T02:22:37.470Z,1005.56
2018-06-04T02:23:37.455Z,1005.59
2018-06-04T02:24:37.443Z,1005.62
2018-06-04T02:25:37.423Z,1005.60
2018-06-04T02:26:37.428Z,1005.61
2018-06-04T02:27:37.388Z,1005.56
2018-06-04T02:28:37.375Z,1005.58
2018-06-04T02:29:37.358Z,1005.60
2018-06-04T02:30:37.343Z,1005.61
2018-06-04T02:31:37.335Z,1005.58
2018-06-04T02:32:37.308Z,1005.60
2018-06-04T02:33:37.292Z,1005.61
2018-06-04T02:34:37.278Z,1005.61
2018-06-04T02:35:37.260Z,1005.64
2018-06-04T02:36:37.257Z,1005.64
2018-06-04T02:37:37.227Z,1005.64
2018-06-04T02:38:37.209Z,1005.67
2018-06-04T02:39:37.193Z,1005.70
2018-06-04T02:40:37.197Z,1005.71
2018-06-04T02:41:37.170Z,1005.75
2018-06-04T02:42:37.155Z,1005.69
2018-06-04T02:43:37.132Z,1005.71
2018-06-04T02:44:37.112Z,1005.71
2018-06-04T02:45:37.107Z,1005.67
2018-06-04T02:46:37.079Z,1005.72
2018-06-04T02:47:37.077Z,1005.70
2018-06-04T02:48:37.045Z,1005.65
2018-06-04T02:49:37.031Z,1005.71
2018-06-04T02:50:37.011Z,1005.66
2018-06-04T02:51:36.997Z,1005.66
2018-06-04T02:52:36.981Z,1005.62
2018-06-04T02:53:36.976Z,1005.60
2018-06-04T02:54:36.954Z,1005.61
2018-06-04T02:55:36.933Z,1005.62
2018-06-04T02:56:36.920Z,1005.59
2018-06-04T02:57:36.897Z,1005.59
2018-06-04T02:58:36.898Z,1005.59
2018-06-04T02:59:36.865Z,1005.59
2018-06-04T03:00:36.848Z,1005.58
2018-06-04T03:01:36.835Z,1005.56
2018-06-04T03:02:36.813Z,1005.58
2018-06-04T03:03:36.816Z,1005.56
2018-06-04T03:04:36.781Z,1005.52
2018-06-04T03:05:36.767Z,1005.55
2018-06-04T03:06:36.748Z,1005.52
2018-06-04T03:07:36.733Z,1005.51
2018-06-04T03:08:36.716Z,1005.46
2018-06-04T03:09:36.710Z,1005.46
2018-06-04T03:10:36.684Z,1005.45
2018-06-04T03:11:36.669Z,1005.43
2018-06-04T03:12:36.656Z,1005.45
2018-06-04T03:13:36.637Z,1005.44
2018-06-04T03:14:36.635Z,1005.40
2018-06-04T03:15:36.601Z,1005.45
2018-06-04T03:16:36.588Z,1005.40
2018-06-04T03:17:36.570Z,1005.45
2018-06-04T03:18:36.561Z,1005.51
2018-06-04T03:19:36.534Z,1005.51
2018-06-04T03:20:36.571Z,1005.52
2018-06-04T03:21:36.505Z,1005.50
2018-06-04T03:22:36.493Z,1005.53
2018-06-04T03:23:36.466Z,1005.53
2018-06-04T03:24:36.445Z,1005.52
2018-06-04T03:25:36.444Z,1005.54
2018-06-04T03:26:36.414Z,1005.53
2018-06-04T03:27:36.401Z,1005.56
2018-06-04T03:28:36.379Z,1005.57
2018-06-04T03:29:36.371Z,1005.60
2018-06-04T03:30:36.382Z,1005.57
2018-06-04T03:31:36.349Z,1005.54
2018-06-04T03:32:36.317Z,1005.57
2018-06-04T03:33:36.309Z,1005.56
2018-06-04T03:34:36.284Z,1005.58
2018-06-04T03:35:36.269Z,1005.58
2018-06-04T03:36:36.263Z,1005.59
2018-06-04T03:37:36.235Z,1005.65
2018-06-04T03:38:36.218Z,1005.68
2018-06-04T03:39:36.204Z,1005.68
2018-06-04T03:40:36.185Z,1005.65
2018-06-04T03:41:36.185Z,1005.67
2018-06-04T03:42:36.150Z,1005.66
2018-06-04T03:43:36.136Z,1005.66
2018-06-04T03:44:36.119Z,1005.64
2018-06-04T03:45:36.102Z,1005.65
2018-06-04T03:46:36.084Z,1005.64
2018-06-04T03:47:36.078Z,1005.60
2018-06-04T03:48:36.052Z,1005.60
2018-06-04T03:49:36.036Z,1005.57
2018-06-04T03:50:36.021Z,1005.55
2018-06-04T03:51:36.002Z,1005.54
2018-06-04T03:52:35.994Z,1005.53
2018-06-04T03:53:35.968Z,1005.49
2018-06-04T03:54:35.953Z,1005.50
2018-06-04T03:55:35.933Z,1005.48
2018-06-04T03:56:35.917Z,1005.51
2018-06-04T03:57:35.922Z,1005.49
2018-06-04T03:58:35.883Z,1005.51
2018-06-04T03:59:35.868Z,1005.47
2018-06-04T04:00:35.849Z,1005.46
2018-06-04T04:01:35.839Z,1005.48
2018-06-04T04:02:35.818Z,1005.49
2018-06-04T04:03:35.811Z,1005.48
2018-06-04T04:04:35.783Z,1005.49
2018-06-04T04:05:35.771Z,1005.50
2018-06-04T04:06:35.749Z,1005.50
2018-06-04T04:07:35.737Z,1005.46
2018-06-04T04:08:35.732Z,1005.48
2018-06-04T04:09:35.699Z,1005.47
2018-06-04T04:10:35.684Z,1005.46
2018-06-04T04:11:35.670Z,1005.45
2018-06-04T04:12:35.652Z,1005.43
2018-06-04T04:13:35.636Z,1005.42
2018-06-04T04:14:35.638Z,1005.43
2018-06-04T04:15:35.605Z,1005.42
2018-06-04T04:16:35.586Z,1005.41
2018-06-04T04:17:35.569Z,1005.39
2018-06-04T04:18:35.550Z,1005.39
2018-06-04T04:19:35.535Z,1005.38
2018-06-04T04:20:35.535Z,1005.37
2018-06-04T04:21:35.502Z,1005.37
2018-06-04T04:22:35.487Z,1005.38
2018-06-04T04:23:35.470Z,1005.33
2018-06-04T04:24:35.451Z,1005.35
2018-06-04T04:25:35.447Z,1005.32
2018-06-04T04:26:35.419Z,1005.34
2018-06-04T04:27:35.404Z,1005.29
2018-06-04T04:28:35.392Z,1005.33
2018-06-04T04:29:35.370Z,1005.32
2018-06-04T04:30:35.367Z,1005.30
2018-06-04T04:31:35.335Z,1005.32
2018-06-04T04:32:35.319Z,1005.36
2018-06-04T04:33:35.304Z,1005.33
2018-06-04T04:34:35.288Z,1005.31
2018-06-04T04:35:35.271Z,1005.34
2018-06-04T04:36:35.272Z,1005.33
2018-06-04T04:37:35.238Z,1005.31
2018-06-04T04:38:35.220Z,1005.30
2018-06-04T04:39:35.209Z,1005.34
2018-06-04T04:40:35.189Z,1005.35
2018-06-04T04:41:35.178Z,1005.33
2018-06-04T04:42:35.166Z,1005.32
2018-06-04T04:43:35.136Z,1005.35
2018-06-04T04:44:35.120Z,1005.30
2018-06-04T04:45:35.107Z,1005.29
2018-06-04T04:46:35.139Z,1005.26
2018-06-04T04:47:35.083Z,1005.28
2018-06-04T04:48:35.057Z,1005.27
2018-06-04T04:49:35.041Z,1005.31
2018-06-04T04:50:35.028Z,1005.30
2018-06-04T04:51:35.009Z,1005.29
2018-06-04T04:52:35.002Z,1005.33
2018-06-04T04:53:34.979Z,1005.31
2018-06-04T04:54:34.958Z,1005.33
2018-06-04T04:55:34.945Z,1005.29
2018-06-04T04:56:34.927Z,1005.35
2018-06-04T04:57:34.942Z,1005.31
2018-06-04T04:58:34.898Z,1005.32
2018-06-04T04:59:34.928Z,1005.31
2018-06-04T05:00:34.861Z,1005.31
2018-06-04T05:01:34.849Z,1005.31
2018-06-04T05:02:34.831Z,1005.33
2018-06-04T05:03:34.827Z,1005.32
2018-06-04T05:04:34.796Z,1005.33
2018-06-04T05:05:34.780Z,1005.37
2018-06-04T05:06:34.764Z,1005.38
2018-06-04T05:07:34.753Z,1005.38
2018-06-04T05:08:34.740Z,1005.39
2018-06-04T05:09:34.731Z,1005.40
2018-06-04T05:10:34.698Z,1005.42
2018-06-04T05:11:34.681Z,1005.42
2018-06-04T05:12:34.665Z,1005.43
2018-06-04T05:13:34.652Z,1005.43
2018-06-04T05:14:34.641Z,1005.42
2018-06-04T05:15:34.619Z,1005.41
2018-06-04T05:16:34.603Z,1005.39
2018-06-04T05:17:34.584Z,1005.44
2018-06-04T05:18:34.567Z,1005.41
2018-06-04T05:19:34.564Z,1005.40
2018-06-04T05:20:34.537Z,1005.42
2018-06-04T05:21:34.524Z,1005.38
2018-06-04T05:22:34.507Z,1005.38
2018-06-04T05:23:34.490Z,1005.40
2018-06-04T05:24:34.483Z,1005.38
2018-06-04T05:25:34.457Z,1005.37
2018-06-04T05:26:34.472Z,1005.36
2018-06-04T05:27:34.426Z,1005.39
2018-06-04T05:28:34.415Z,1005.39
2018-06-04T05:29:34.410Z,1005.35
2018-06-04T05:30:34.375Z,1005.37
2018-06-04T05:31:34.362Z,1005.41
2018-06-04T05:32:34.345Z,1005.38
2018-06-04T05:33:34.330Z,1005.36
2018-06-04T05:34:34.313Z,1005.40
2018-06-04T05:35:34.568Z,1005.34
2018-06-04T05:36:34.280Z,1005.37
2018-06-04T05:37:34.266Z,1005.35
2018-06-04T05:38:34.248Z,1005.40
2018-06-04T05:39:34.235Z,1005.41
2018-06-04T05:40:34.220Z,1005.40
2018-06-04T05:41:34.212Z,1005.39
2018-06-04T05:42:34.185Z,1005.40
2018-06-04T05:43:34.171Z,1005.39
2018-06-04T05:44:34.163Z,1005.37
2018-06-04T05:45:34.182Z,1005.32
2018-06-04T05:46:34.136Z,1005.31
2018-06-04T05:47:34.111Z,1005.35
2018-06-04T05:48:34.093Z,1005.35
2018-06-04T05:49:34.080Z,1005.30
2018-06-04T05:50:34.064Z,1005.30
2018-06-04T05:51:34.061Z,1005.31
2018-06-04T05:52:34.034Z,1005.27
2018-06-04T05:53:34.018Z,1005.30
2018-06-04T05:54:33.999Z,1005.25
2018-06-04T05:55:33.987Z,1005.29
2018-06-04T05:56:34.245Z,1005.25
2018-06-04T05:57:33.962Z,1005.28
2018-06-04T05:58:33.942Z,1005.32
2018-06-04T05:59:33.929Z,1005.33
2018-06-04T06:00:33.913Z,1005.35
2018-06-04T06:01:33.899Z,1005.33
2018-06-04T06:02:33.892Z,1005.34
2018-06-04T06:03:33.872Z,1005.33
2018-06-04T06:04:33.856Z,1005.37
2018-06-04T06:05:33.840Z,1005.32
2018-06-04T06:06:33.831Z,1005.27
2018-06-04T06:07:33.826Z,1005.25
2018-06-04T06:08:33.797Z,1005.30
2018-06-04T06:09:33.784Z,1005.30
2018-06-04T06:10:33.768Z,1005.28
2018-06-04T06:11:33.760Z,1005.30
2018-06-04T06:12:33.739Z,1005.27
2018-06-04T06:13:33.743Z,1005.28
2018-06-04T06:14:33.711Z,1005.29
2018-06-04T06:15:33.697Z,1005.30
2018-06-04T06:16:33.685Z,1005.30
2018-06-04T06:17:33.670Z,1005.29
2018-06-04T06:18:33.671Z,1005.26
2018-06-04T06:19:33.645Z,1005.28
2018-06-04T06:20:33.629Z,1005.23
2018-06-04T06:21:33.616Z,1005.24
2018-06-04T06:22:33.600Z,1005.21
2018-06-04T06:23:33.592Z,1005.21
2018-06-04T06:24:33.585Z,1005.19
2018-06-04T06:25:33.561Z,1005.16
2018-06-04T06:26:33.550Z,1005.21
2018-06-04T06:27:33.534Z,1005.19
2018-06-04T06:28:33.533Z,1005.14
2018-06-04T06:29:33.508Z,1005.12
2018-06-04T06:30:33.493Z,1005.12
2018-06-04T06:31:33.482Z,1005.12
2018-06-04T06:32:33.469Z,1005.12
2018-06-04T06:33:33.457Z,1005.15
2018-06-04T06:34:33.451Z,1005.09
2018-06-04T06:35:33.428Z,1005.09
2018-06-04T06:36:33.426Z,1005.07
2018-06-04T06:37:33.403Z,1005.08
2018-06-04T06:38:33.390Z,1005.09
2018-06-04T06:39:33.388Z,1005.08
2018-06-04T06:40:33.369Z,1005.06
2018-06-04T06:41:33.356Z,1005.06
2018-06-04T06:42:33.339Z,1005.03
2018-06-04T06:43:33.325Z,1005.03
2018-06-04T06:44:33.314Z,1005.06
2018-06-04T06:45:33.309Z,1005.05
2018-06-04T06:46:33.286Z,1005.09
2018-06-04T06:47:33.279Z,1005.06
2018-06-04T06:48:33.266Z,1005.00
2018-06-04T06:49:33.248Z,1005.04
2018-06-04T06:50:33.251Z,1005.02
2018-06-04T06:51:33.224Z,1005.01
2018-06-04T06:52:33.212Z,1005.01
2018-06-04T06:53:33.198Z,1005.01
2018-06-04T06:54:33.186Z,1004.99
2018-06-04T06:55:33.175Z,1004.99
2018-06-04T06:56:33.177Z,1004.98
2018-06-04T06:57:33.150Z,1005.03
2018-06-04T06:58:33.136Z,1005.05
2018-06-04T06:59:33.125Z,1005.04
2018-06-04T07:00:33.113Z,1005.04
2018-06-04T07:01:33.110Z,1005.07
2018-06-04T07:02:33.090Z,1005.10
2018-06-04T07:03:33.078Z,1005.09
2018-06-04T07:04:33.063Z,1005.09
2018-06-04T07:05:33.052Z,1005.04
2018-06-04T07:06:33.059Z,1005.04
2018-06-04T07:07:33.040Z,1005.07
2018-06-04T07:08:33.019Z,1005.04
2018-06-04T07:09:33.003Z,1005.04
2018-06-04T07:10:32.992Z,1005.06
2018-06-04T07:11:32.977Z,1005.08
2018-06-04T07:12:32.982Z,1005.10
2018-06-04T07:13:32.962Z,1005.07
2018-06-04T07:14:32.949Z,1005.10
2018-06-04T07:15:32.933Z,1005.05
2018-06-04T07:16:32.920Z,1005.05
2018-06-04T07:17:32.908Z,1005.05
2018-06-04T07:18:32.908Z,1005.03
2018-06-04T07:19:32.881Z,1004.97
2018-06-04T07:20:32.873Z,1005.00
2018-06-04T07:21:32.860Z,1004.98
2018-06-04T07:22:32.849Z,1004.99
2018-06-04T07:23:32.847Z,1004.98
2018-06-04T07:24:32.828Z,1005.01
2018-06-04T07:25:32.814Z,1004.98
2018-06-04T07:26:32.802Z,1004.96
2018-06-04T07:27:32.790Z,1004.98
2018-06-04T07:28:32.794Z,1004.95
2018-06-04T07:29:32.768Z,1004.91
2018-06-04T07:30:32.757Z,1004.89
2018-06-04T07:31:32.746Z,1004.89
2018-06-04T07:32:32.730Z,1004.89
2018-06-04T07:33:32.737Z,1004.90
2018-06-04T07:34:32.708Z,1004.92
2018-06-04T07:35:32.700Z,1004.88
2018-06-04T07:36:32.696Z,1004.92
2018-06-04T07:37:32.674Z,1004.88
2018-06-04T07:38:32.661Z,1004.85
2018-06-04T07:39:32.663Z,1004.85
2018-06-04T07:40:32.639Z,1004.82
2018-06-04T07:41:32.627Z,1004.81
2018-06-04T07:42:32.614Z,1004.79
2018-06-04T07:43:32.603Z,1004.82
2018-06-04T07:44:32.637Z,1004.77
2018-06-04T07:45:32.591Z,1004.77
2018-06-04T07:46:32.571Z,1004.77
2018-06-04T07:47:32.560Z,1004.79
2018-06-04T07:48:32.546Z,1004.77
2018-06-04T07:49:32.535Z,1004.74
2018-06-04T07:50:32.532Z,1004.74
2018-06-04T07:51:32.509Z,1004.74
2018-06-04T07:52:32.499Z,1004.72
2018-06-04T07:53:32.488Z,1004.68
2018-06-04T07:54:32.473Z,1004.69
2018-06-04T07:55:32.475Z,1004.66
2018-06-04T07:56:32.448Z,1004.68
2018-06-04T07:57:32.439Z,1004.66
2018-06-04T07:58:32.425Z,1004.64
2018-06-04T07:59:32.414Z,1004.64
2018-06-04T08:00:32.420Z,1004.63
2018-06-04T08:01:32.393Z,1004.62
2018-06-04T08:02:32.379Z,1004.61
2018-06-04T08:03:32.367Z,1004.61
2018-06-04T08:04:32.354Z,1004.58
2018-06-04T08:05:32.342Z,1004.57
2018-06-04T08:06:32.394Z,1004.57
2018-06-04T08:07:32.323Z,1004.53
2018-06-04T08:08:32.306Z,1004.56
2018-06-04T08:09:32.296Z,1004.53
2018-06-04T08:10:32.283Z,1004.48
2018-06-04T08:11:32.273Z,1004.50
2018-06-04T08:12:32.269Z,1004.51
2018-06-04T08:13:32.249Z,1004.50
2018-06-04T08:14:32.239Z,1004.46
2018-06-04T08:15:32.221Z,1004.46
2018-06-04T08:16:32.210Z,1004.47
2018-06-04T08:17:32.209Z,1004.43
2018-06-04T08:18:32.185Z,1004.41
2018-06-04T08:19:32.174Z,1004.46
2018-06-04T08:20:32.170Z,1004.44
2018-06-04T08:21:32.148Z,1004.47
2018-06-04T08:22:32.152Z,1004.42
2018-06-04T08:23:32.128Z,1004.41
2018-06-04T08:24:32.117Z,1004.42
2018-06-04T08:25:32.105Z,1004.39
2018-06-04T08:26:32.093Z,1004.40
2018-06-04T08:27:32.080Z,1004.38
2018-06-04T08:28:32.090Z,1004.33
2018-06-04T08:29:32.057Z,1004.36
2018-06-04T08:30:32.048Z,1004.34
2018-06-04T08:31:32.034Z,1004.36
2018-06-04T08:32:32.025Z,1004.34
2018-06-04T08:33:32.010Z,1004.30
2018-06-04T08:34:32.007Z,1004.34
2018-06-04T08:35:31.988Z,1004.29
2018-06-04T08:36:31.979Z,1004.32
2018-06-04T08:37:31.962Z,1004.32
2018-06-04T08:38:32.001Z,1004.34
2018-06-04T08:39:31.948Z,1004.33
2018-06-04T08:40:31.925Z,1004.33
2018-06-04T08:41:31.916Z,1004.34
2018-06-04T08:42:31.909Z,1004.29
2018-06-04T08:43:31.893Z,1004.29
2018-06-04T08:44:31.893Z,1004.25
2018-06-04T08:45:31.883Z,1004.27
2018-06-04T08:46:31.857Z,1004.28
2018-06-04T08:47:31.845Z,1004.30
2018-06-04T08:48:31.833Z,1004.25
2018-06-04T08:49:31.825Z,1004.26
2018-06-04T08:50:31.823Z,1004.26
2018-06-04T08:51:31.798Z,1004.25
2018-06-04T08:52:31.787Z,1004.28
2018-06-04T08:53:31.775Z,1004.25
2018-06-04T08:54:31.762Z,1004.24
2018-06-04T08:55:31.766Z,1004.27
2018-06-04T08:56:31.744Z,1004.28
2018-06-04T08:57:31.736Z,1004.27
2018-06-04T08:58:31.718Z,1004.27
2018-06-04T08:59:31.711Z,1004.26
2018-06-04T09:00:31.693Z,1004.26
2018-06-04T09:01:31.700Z,1004.26
2018-06-04T09:02:31.672Z,1004.24
2018-06-04T09:03:31.660Z,1004.23
2018-06-04T09:04:31.648Z,1004.19
2018-06-04T09:05:31.640Z,1004.19
2018-06-04T09:06:31.634Z,1004.18
2018-06-04T09:07:31.615Z,1004.17
2018-06-04T09:08:31.606Z,1004.20
2018-06-04T09:09:31.592Z,1004.24
2018-06-04T09:10:31.581Z,1004.23
2018-06-04T09:11:31.583Z,1004.23
2018-06-04T09:12:31.559Z,1004.22
2018-06-04T09:13:31.545Z,1004.25
2018-06-04T09:14:31.533Z,1004.19
2018-06-04T09:15:31.524Z,1004.19
2018-06-04T09:16:31.512Z,1004.16
2018-06-04T09:17:31.512Z,1004.13
2018-06-04T09:18:31.486Z,1004.10
2018-06-04T09:19:31.480Z,1004.16
2018-06-04T09:20:31.469Z,1004.18
2018-06-04T09:21:31.456Z,1004.15
2018-06-04T09:22:31.466Z,1004.17
2018-06-04T09:23:31.433Z,1004.10
2018-06-04T09:24:31.423Z,1004.12
2018-06-04T09:25:31.412Z,1004.15
2018-06-04T09:26:31.403Z,1004.15
2018-06-04T09:27:31.395Z,1004.12
2018-06-04T09:28:31.388Z,1004.17
2018-06-04T09:29:31.372Z,1004.18
2018-06-04T09:30:31.357Z,1004.18
2018-06-04T09:31:31.344Z,1004.22
2018-06-04T09:32:31.333Z,1004.17
2018-06-04T09:33:31.333Z,1004.14
2018-06-04T09:34:31.312Z,1004.13
2018-06-04T09:35:31.308Z,1004.18
2018-06-04T09:36:31.297Z,1004.17
2018-06-04T09:37:31.280Z,1004.19
2018-06-04T09:38:31.283Z,1004.17
2018-06-04T09:39:31.258Z,1004.20
2018-06-04T09:40:31.245Z,1004.20
2018-06-04T09:41:31.237Z,1004.18
2018-06-04T09:42:31.229Z,1004.22
2018-06-04T09:43:31.213Z,1004.15
2018-06-04T09:44:31.214Z,1004.17
2018-06-04T09:45:31.190Z,1004.13
2018-06-04T09:46:31.179Z,1004.15
2018-06-04T09:47:31.210Z,1004.10
2018-06-04T09:48:31.159Z,1004.10
2018-06-04T09:49:31.165Z,1004.12
2018-06-04T09:50:31.138Z,1004.15
2018-06-04T09:51:31.129Z,1004.12
2018-06-04T09:52:31.121Z,1004.08
2018-06-04T09:53:31.108Z,1004.10
2018-06-04T09:54:31.096Z,1004.10
2018-06-04T09:55:31.097Z,1004.11
2018-06-04T09:56:31.076Z,1004.07
2018-06-04T09:57:31.065Z,1004.09
2018-06-04T09:58:31.054Z,1004.09
2018-06-04T09:59:31.042Z,1004.08
2018-06-04T10:00:31.051Z,1004.13
2018-06-04T10:01:31.030Z,1004.14
2018-06-04T10:02:31.012Z,1004.11
2018-06-04T10:03:31.003Z,1004.08
2018-06-04T10:04:30.990Z,1004.11
2018-06-04T10:05:30.987Z,1004.10
2018-06-04T10:06:30.983Z,1004.10
2018-06-04T10:07:30.961Z,1004.08
2018-06-04T10:08:30.969Z,1004.08
2018-06-04T10:09:30.942Z,1004.07
2018-06-04T10:10:30.929Z,1004.06
2018-06-04T10:11:30.931Z,1004.04
2018-06-04T10:12:30.907Z,1004.06
2018-06-04T10:13:30.902Z,1004.02
2018-06-04T10:14:30.890Z,1003.98
2018-06-04T10:15:30.878Z,1004.03
2018-06-04T10:16:30.888Z,1004.03
2018-06-04T10:17:30.859Z,1004.04
2018-06-04T10:18:30.849Z,1004.06
2018-06-04T10:19:30.839Z,1004.10
2018-06-04T10:20:30.828Z,1004.07
2018-06-04T10:21:30.818Z,1004.02
2018-06-04T10:22:30.821Z,1003.99
2018-06-04T10:23:30.799Z,1003.99
2018-06-04T10:24:30.786Z,1004.02
2018-06-04T10:25:30.778Z,1004.04
2018-06-04T10:26:30.767Z,1004.06
2018-06-04T10:27:30.775Z,1003.99
2018-06-04T10:28:30.746Z,1004.01
2018-06-04T10:29:30.736Z,1004.05
2018-06-04T10:30:30.729Z,1004.05
2018-06-04T10:31:30.718Z,1004.05
2018-06-04T10:32:30.707Z,1004.05
2018-06-04T10:33:30.715Z,1004.03
2018-06-04T10:34:30.687Z,1004.09
2018-06-04T10:35:30.679Z,1004.10
2018-06-04T10:36:30.665Z,1004.08
2018-06-04T10:37:30.661Z,1004.11
2018-06-04T10:38:30.661Z,1004.09
2018-06-04T10:39:30.642Z,1004.09
2018-06-04T10:40:30.687Z,1004.10
2018-06-04T10:41:30.619Z,1004.11
2018-06-04T10:42:30.612Z,1004.10
2018-06-04T10:43:30.598Z,1004.11
2018-06-04T10:44:30.598Z,1004.08
2018-06-04T10:45:30.575Z,1004.13
2018-06-04T10:46:30.612Z,1004.14
2018-06-04T10:47:30.556Z,1004.13
2018-06-04T10:48:30.548Z,1004.14
2018-06-04T10:49:30.548Z,1004.10
2018-06-04T10:50:30.527Z,1004.13
2018-06-04T10:51:30.519Z,1004.14
2018-06-04T10:52:30.513Z,1004.09
2018-06-04T10:53:30.499Z,1004.09
2018-06-04T10:54:30.503Z,1004.09
2018-06-04T10:55:30.482Z,1004.14
2018-06-04T10:56:30.469Z,1004.16
2018-06-04T10:57:30.465Z,1004.13
2018-06-04T10:58:30.450Z,1004.13
2018-06-04T10:59:30.450Z,1004.14
2018-06-04T11:00:30.443Z,1004.15
2018-06-04T11:01:30.422Z,1004.08
2018-06-04T11:02:30.411Z,1004.10
2018-06-04T11:03:30.403Z,1004.10
2018-06-04T11:04:30.395Z,1004.08
2018-06-04T11:05:30.401Z,1004.01
2018-06-04T11:06:30.375Z,1004.09
2018-06-04T11:07:30.365Z,1004.07
2018-06-04T11:08:30.362Z,1003.85
2018-06-04T11:09:30.347Z,1003.81
2018-06-04T11:10:30.337Z,1003.80
2018-06-04T11:11:30.337Z,1003.77
2018-06-04T11:12:30.317Z,1003.75
2018-06-04T11:13:30.308Z,1003.75
2018-06-04T11:14:30.296Z,1003.76
2018-06-04T11:15:30.286Z,1003.99
2018-06-04T11:16:30.286Z,1003.91
2018-06-04T11:17:30.269Z,1003.98
2018-06-04T11:18:30.261Z,1004.00
2018-06-04T11:19:30.248Z,1003.93
2018-06-04T11:20:30.241Z,1004.01
2018-06-04T11:21:30.249Z,1004.02
2018-06-04T11:22:30.222Z,1004.03
2018-06-04T11:23:30.209Z,1003.98
2018-06-04T11:24:30.200Z,1003.96
2018-06-04T11:25:30.193Z,1004.00
2018-06-04T11:26:30.182Z,1003.96
2018-06-04T11:27:30.180Z,1003.97
2018-06-04T11:28:30.165Z,1003.93
2018-06-04T11:29:30.151Z,1003.91
2018-06-04T11:30:30.216Z,1003.89
2018-06-04T11:31:30.134Z,1003.92
2018-06-04T11:32:30.138Z,1003.87
2018-06-04T11:33:30.115Z,1003.93
2018-06-04T11:34:30.114Z,1003.91
2018-06-04T11:35:30.095Z,1003.89
2018-06-04T11:36:30.089Z,1003.89
2018-06-04T11:37:30.084Z,1003.87
2018-06-04T11:38:30.078Z,1003.87
2018-06-04T11:39:30.060Z,1003.89
2018-06-04T11:40:30.054Z,1003.87
2018-06-04T11:41:30.044Z,1003.89
2018-06-04T11:42:30.031Z,1003.86
2018-06-04T11:43:30.035Z,1003.87
2018-06-04T11:44:30.022Z,1003.87
2018-06-04T11:45:30.005Z,1003.86
2018-06-04T11:46:30.000Z,1003.81
2018-06-04T11:47:29.985Z,1003.82
2018-06-04T11:48:29.977Z,1003.77
2018-06-04T11:49:29.983Z,1003.80
2018-06-04T11:50:29.961Z,1003.76
2018-06-04T11:51:29.953Z,1003.81
2018-06-04T11:52:29.945Z,1003.75
2018-06-04T11:53:29.934Z,1003.79
2018-06-04T11:54:30.183Z,1003.80
2018-06-04T11:55:29.918Z,1003.76
2018-06-04T11:56:29.935Z,1003.76
2018-06-04T11:57:29.899Z,1003.74
2018-06-04T11:58:29.891Z,1003.73
2018-06-04T11:59:29.881Z,1003.68
2018-06-04T12:00:29.887Z,1003.72
2018-06-04T12:01:29.869Z,1003.67
2018-06-04T12:02:29.854Z,1003.71
2018-06-04T12:03:29.846Z,1003.71
2018-06-04T12:04:29.841Z,1003.72
2018-06-04T12:05:29.840Z,1003.72